sensor_id;sensor_type;location;lat;lon;timestamp;P1;durP1;ratioP1;P2;durP2;ratioP2
19235;SDS011;9752;54.270;12.470;2022-11-20T00:01:36;3.50;;;3.30;;
19235;SDS011;9752;54.270;12.470;2022-11-20T00:06:38;4.20;;;3.20;;
19235;SDS011;9752;54.270;12.470;2022-11-20T00:11:40;2.90;;;2.80;;
19235;SDS011;9752;54.270;12.470;2022-11-20T00:16:43;3.10;;;2.90;;
19235;SDS011;9752;54.270;12.470;2022-11-20T00:21:45;3.43;;;3.10;;
19235;SDS011;9752;54.270;12.470;2022-11-20T00:26:46;3.23;;;3.03;;
19235;SDS011;9752;54.270;12.470;2022-11-20T00:31:49;5.63;;;3.10;;
19235;SDS011;9752;54.270;12.470;2022-11-20T00:36:51;3.30;;;3.00;;
19235;SDS011;9752;54.270;12.470;2022-11-20T00:41:53;4.93;;;4.20;;
19235;SDS011;9752;54.270;12.470;2022-11-20T00:46:56;4.40;;;4.00;;
19235;SDS011;9752;54.270;12.470;2022-11-20T00:51:57;3.40;;;3.17;;
19235;SDS011;9752;54.270;12.470;2022-11-20T00:56:59;4.13;;;3.83;;
19235;SDS011;9752;54.270;12.470;2022-11-20T01:02:02;3.13;;;2.93;;
19235;SDS011;9752;54.270;12.470;2022-11-20T01:07:04;3.83;;;3.43;;
19235;SDS011;9752;54.270;12.470;2022-11-20T01:12:05;3.57;;;3.30;;
19235;SDS011;9752;54.270;12.470;2022-11-20T01:17:09;8.77;;;4.00;;
19235;SDS011;9752;54.270;12.470;2022-11-20T01:22:10;4.60;;;4.30;;
19235;SDS011;9752;54.270;12.470;2022-11-20T01:27:12;3.90;;;3.60;;
19235;SDS011;9752;54.270;12.470;2022-11-20T01:32:15;4.03;;;3.73;;
19235;SDS011;9752;54.270;12.470;2022-11-20T01:37:17;4.03;;;3.73;;
19235;SDS011;9752;54.270;12.470;2022-11-20T01:42:19;4.13;;;3.83;;
19235;SDS011;9752;54.270;12.470;2022-11-20T01:47:40;5.83;;;4.93;;
19235;SDS011;9752;54.270;12.470;2022-11-20T01:52:47;4.67;;;4.10;;
19235;SDS011;9752;54.270;12.470;2022-11-20T01:57:53;4.13;;;3.70;;
19235;SDS011;9752;54.270;12.470;2022-11-20T02:02:57;3.80;;;3.50;;
19235;SDS011;9752;54.270;12.470;2022-11-20T02:08:01;3.97;;;3.67;;
19235;SDS011;9752;54.270;12.470;2022-11-20T02:13:04;4.47;;;4.07;;
19235;SDS011;9752;54.270;12.470;2022-11-20T02:18:25;4.90;;;3.77;;
19235;SDS011;9752;54.270;12.470;2022-11-20T02:23:28;5.10;;;3.73;;
19235;SDS011;9752;54.270;12.470;2022-11-20T02:28:35;4.53;;;4.13;;
19235;SDS011;9752;54.270;12.470;2022-11-20T02:33:37;4.43;;;4.03;;
19235;SDS011;9752;54.270;12.470;2022-11-20T02:38:39;4.03;;;3.63;;
19235;SDS011;9752;54.270;12.470;2022-11-20T02:43:42;4.50;;;4.10;;
19235;SDS011;9752;54.270;12.470;2022-11-20T02:48:44;4.47;;;4.10;;
19235;SDS011;9752;54.270;12.470;2022-11-20T02:53:46;3.57;;;3.30;;
19235;SDS011;9752;54.270;12.470;2022-11-20T02:58:49;4.20;;;3.80;;
19235;SDS011;9752;54.270;12.470;2022-11-20T03:03:51;3.90;;;3.23;;
19235;SDS011;9752;54.270;12.470;2022-11-20T03:08:54;7.63;;;3.93;;
19235;SDS011;9752;54.270;12.470;2022-11-20T03:13:57;4.87;;;4.37;;
19235;SDS011;9752;54.270;12.470;2022-11-20T03:19:03;3.93;;;3.53;;
19235;SDS011;9752;54.270;12.470;2022-11-20T03:24:05;4.87;;;4.10;;
19235;SDS011;9752;54.270;12.470;2022-11-20T03:29:08;4.37;;;4.00;;
19235;SDS011;9752;54.270;12.470;2022-11-20T03:34:10;4.07;;;3.77;;
19235;SDS011;9752;54.270;12.470;2022-11-20T03:39:13;4.10;;;3.70;;
19235;SDS011;9752;54.270;12.470;2022-11-20T03:44:16;4.70;;;4.30;;
19235;SDS011;9752;54.270;12.470;2022-11-20T03:49:18;4.50;;;4.00;;
19235;SDS011;9752;54.270;12.470;2022-11-20T03:54:20;4.67;;;4.27;;
19235;SDS011;9752;54.270;12.470;2022-11-20T03:59:23;5.53;;;3.90;;
19235;SDS011;9752;54.270;12.470;2022-11-20T04:04:25;6.00;;;4.77;;
19235;SDS011;9752;54.270;12.470;2022-11-20T04:09:26;5.50;;;4.90;;
19235;SDS011;9752;54.270;12.470;2022-11-20T04:14:30;5.63;;;4.30;;
19235;SDS011;9752;54.270;12.470;2022-11-20T04:19:31;5.20;;;4.70;;
19235;SDS011;9752;54.270;12.470;2022-11-20T04:24:33;6.10;;;4.67;;
19235;SDS011;9752;54.270;12.470;2022-11-20T04:29:36;5.83;;;4.97;;
19235;SDS011;9752;54.270;12.470;2022-11-20T04:34:38;11.07;;;5.17;;
19235;SDS011;9752;54.270;12.470;2022-11-20T04:39:39;6.17;;;5.53;;
19235;SDS011;9752;54.270;12.470;2022-11-20T04:44:42;5.70;;;5.27;;
19235;SDS011;9752;54.270;12.470;2022-11-20T04:49:44;6.70;;;6.10;;
19235;SDS011;9752;54.270;12.470;2022-11-20T04:54:46;9.87;;;6.10;;
19235;SDS011;9752;54.270;12.470;2022-11-20T04:59:49;7.23;;;6.10;;
19235;SDS011;9752;54.270;12.470;2022-11-20T05:04:50;8.70;;;7.07;;
19235;SDS011;9752;54.270;12.470;2022-11-20T05:09:52;9.23;;;7.53;;
19235;SDS011;9752;54.270;12.470;2022-11-20T05:14:55;10.67;;;7.63;;
19235;SDS011;9752;54.270;12.470;2022-11-20T05:19:57;8.80;;;7.60;;
19235;SDS011;9752;54.270;12.470;2022-11-20T05:24:58;9.70;;;7.43;;
19235;SDS011;9752;54.270;12.470;2022-11-20T05:30:01;8.47;;;7.17;;
19235;SDS011;9752;54.270;12.470;2022-11-20T05:35:04;9.33;;;7.57;;
19235;SDS011;9752;54.270;12.470;2022-11-20T05:40:06;10.23;;;7.97;;
19235;SDS011;9752;54.270;12.470;2022-11-20T05:45:10;11.50;;;8.97;;
19235;SDS011;9752;54.270;12.470;2022-11-20T05:50:12;10.77;;;8.23;;
19235;SDS011;9752;54.270;12.470;2022-11-20T05:55:14;14.07;;;9.83;;
19235;SDS011;9752;54.270;12.470;2022-11-20T06:00:18;15.67;;;10.73;;
19235;SDS011;9752;54.270;12.470;2022-11-20T06:05:19;23.67;;;14.43;;
19235;SDS011;9752;54.270;12.470;2022-11-20T06:10:21;19.53;;;13.17;;
19235;SDS011;9752;54.270;12.470;2022-11-20T06:15:24;25.90;;;13.47;;
19235;SDS011;9752;54.270;12.470;2022-11-20T06:20:26;23.63;;;14.33;;
19235;SDS011;9752;54.270;12.470;2022-11-20T06:25:27;23.20;;;14.70;;
19235;SDS011;9752;54.270;12.470;2022-11-20T06:30:30;23.40;;;14.87;;
19235;SDS011;9752;54.270;12.470;2022-11-20T06:35:32;27.13;;;16.83;;
19235;SDS011;9752;54.270;12.470;2022-11-20T06:40:34;24.63;;;15.23;;
19235;SDS011;9752;54.270;12.470;2022-11-20T06:45:37;26.43;;;14.77;;
19235;SDS011;9752;54.270;12.470;2022-11-20T06:50:39;25.57;;;15.17;;
19235;SDS011;9752;54.270;12.470;2022-11-20T06:55:41;23.13;;;13.27;;
19235;SDS011;9752;54.270;12.470;2022-11-20T07:00:46;20.57;;;12.30;;
19235;SDS011;9752;54.270;12.470;2022-11-20T07:05:47;19.23;;;12.00;;
19235;SDS011;9752;54.270;12.470;2022-11-20T07:10:49;11.93;;;7.80;;
19235;SDS011;9752;54.270;12.470;2022-11-20T07:15:52;8.40;;;5.47;;
19235;SDS011;9752;54.270;12.470;2022-11-20T07:20:54;7.30;;;5.20;;
19235;SDS011;9752;54.270;12.470;2022-11-20T07:25:55;4.73;;;3.90;;
19235;SDS011;9752;54.270;12.470;2022-11-20T07:30:58;5.37;;;3.60;;
19235;SDS011;9752;54.270;12.470;2022-11-20T07:36:00;4.00;;;3.37;;
19235;SDS011;9752;54.270;12.470;2022-11-20T07:41:02;4.90;;;4.13;;
19235;SDS011;9752;54.270;12.470;2022-11-20T07:46:05;4.47;;;3.90;;
19235;SDS011;9752;54.270;12.470;2022-11-20T07:51:07;5.73;;;4.73;;
19235;SDS011;9752;54.270;12.470;2022-11-20T07:56:09;6.83;;;4.50;;
19235;SDS011;9752;54.270;12.470;2022-11-20T08:01:12;4.73;;;4.23;;
19235;SDS011;9752;54.270;12.470;2022-11-20T08:06:13;6.57;;;5.00;;
19235;SDS011;9752;54.270;12.470;2022-11-20T08:11:15;4.87;;;3.80;;
19235;SDS011;9752;54.270;12.470;2022-11-20T08:16:36;4.13;;;3.53;;
19235;SDS011;9752;54.270;12.470;2022-11-20T08:21:37;3.70;;;3.40;;
19235;SDS011;9752;54.270;12.470;2022-11-20T08:26:40;3.77;;;3.20;;
19235;SDS011;9752;54.270;12.470;2022-11-20T08:31:43;10.77;;;6.60;;
19235;SDS011;9752;54.270;12.470;2022-11-20T08:36:45;6.90;;;4.27;;
19235;SDS011;9752;54.270;12.470;2022-11-20T08:41:47;7.90;;;5.90;;
19235;SDS011;9752;54.270;12.470;2022-11-20T08:46:50;6.60;;;4.57;;
19235;SDS011;9752;54.270;12.470;2022-11-20T08:51:52;8.13;;;5.60;;
19235;SDS011;9752;54.270;12.470;2022-11-20T08:56:55;7.50;;;5.37;;
19235;SDS011;9752;54.270;12.470;2022-11-20T09:01:58;3.80;;;3.40;;
19235;SDS011;9752;54.270;12.470;2022-11-20T09:06:59;7.03;;;5.03;;
19235;SDS011;9752;54.270;12.470;2022-11-20T09:12:01;5.17;;;4.23;;
19235;SDS011;9752;54.270;12.470;2022-11-20T09:17:04;9.27;;;6.53;;
19235;SDS011;9752;54.270;12.470;2022-11-20T09:22:07;10.63;;;7.17;;
19235;SDS011;9752;54.270;12.470;2022-11-20T09:27:09;12.67;;;8.27;;
19235;SDS011;9752;54.270;12.470;2022-11-20T09:32:12;9.10;;;5.90;;
19235;SDS011;9752;54.270;12.470;2022-11-20T09:37:14;7.70;;;5.77;;
19235;SDS011;9752;54.270;12.470;2022-11-20T09:47:44;9.20;;;6.07;;
19235;SDS011;9752;54.270;12.470;2022-11-20T09:53:13;8.97;;;6.63;;
19235;SDS011;9752;54.270;12.470;2022-11-20T09:58:24;7.93;;;6.33;;
19235;SDS011;9752;54.270;12.470;2022-11-20T10:03:36;11.53;;;7.37;;
19235;SDS011;9752;54.270;12.470;2022-11-20T10:08:45;11.50;;;7.47;;
19235;SDS011;9752;54.270;12.470;2022-11-20T10:13:54;11.27;;;8.03;;
19235;SDS011;9752;54.270;12.470;2022-11-20T10:19:08;12.50;;;8.23;;
19235;SDS011;9752;54.270;12.470;2022-11-20T10:24:28;14.90;;;9.70;;
19235;SDS011;9752;54.270;12.470;2022-11-20T10:29:51;14.17;;;8.83;;
19235;SDS011;9752;54.270;12.470;2022-11-20T10:35:03;15.53;;;9.37;;
19235;SDS011;9752;54.270;12.470;2022-11-20T10:40:15;15.93;;;9.60;;
19235;SDS011;9752;54.270;12.470;2022-11-20T10:45:30;17.13;;;11.07;;
19235;SDS011;9752;54.270;12.470;2022-11-20T10:50:40;14.63;;;9.80;;
19235;SDS011;9752;54.270;12.470;2022-11-20T10:55:53;13.10;;;8.73;;
19235;SDS011;9752;54.270;12.470;2022-11-20T11:01:03;15.57;;;10.40;;
19235;SDS011;9752;54.270;12.470;2022-11-20T11:06:08;12.37;;;9.57;;
19235;SDS011;9752;54.270;12.470;2022-11-20T11:11:20;11.67;;;9.80;;
19235;SDS011;9752;54.270;12.470;2022-11-20T11:16:25;9.97;;;8.97;;
19235;SDS011;9752;54.270;12.470;2022-11-20T11:21:29;10.43;;;8.67;;
19235;SDS011;9752;54.270;12.470;2022-11-20T11:26:31;9.60;;;8.43;;
19235;SDS011;9752;54.270;12.470;2022-11-20T11:31:33;13.40;;;10.47;;
19235;SDS011;9752;54.270;12.470;2022-11-20T11:36:37;9.60;;;8.57;;
19235;SDS011;9752;54.270;12.470;2022-11-20T11:41:39;11.23;;;9.13;;
19235;SDS011;9752;54.270;12.470;2022-11-20T11:46:44;9.53;;;8.83;;
19235;SDS011;9752;54.270;12.470;2022-11-20T11:52:04;8.63;;;7.73;;
19235;SDS011;9752;54.270;12.470;2022-11-20T11:57:14;11.30;;;8.43;;
19235;SDS011;9752;54.270;12.470;2022-11-20T12:02:29;8.50;;;7.80;;
19235;SDS011;9752;54.270;12.470;2022-11-20T12:07:40;8.73;;;7.93;;
19235;SDS011;9752;54.270;12.470;2022-11-20T12:12:44;9.03;;;7.83;;
19235;SDS011;9752;54.270;12.470;2022-11-20T12:17:49;11.13;;;9.37;;
19235;SDS011;9752;54.270;12.470;2022-11-20T12:22:54;11.90;;;10.70;;
19235;SDS011;9752;54.270;12.470;2022-11-20T12:28:07;14.93;;;10.13;;
19235;SDS011;9752;54.270;12.470;2022-11-20T12:39:07;15.10;;;11.00;;
19235;SDS011;9752;54.270;12.470;2022-11-20T12:44:27;18.47;;;14.40;;
19235;SDS011;9752;54.270;12.470;2022-11-20T12:50:12;15.27;;;12.87;;
19235;SDS011;9752;54.270;12.470;2022-11-20T13:00:51;19.13;;;13.63;;
19235;SDS011;9752;54.270;12.470;2022-11-20T13:05:59;15.70;;;12.07;;
19235;SDS011;9752;54.270;12.470;2022-11-20T13:11:14;18.43;;;12.17;;
19235;SDS011;9752;54.270;12.470;2022-11-20T13:16:23;15.60;;;12.37;;
19235;SDS011;9752;54.270;12.470;2022-11-20T13:21:35;19.47;;;12.40;;
19235;SDS011;9752;54.270;12.470;2022-11-20T13:26:40;15.90;;;11.17;;
19235;SDS011;9752;54.270;12.470;2022-11-20T13:31:42;16.43;;;11.90;;
19235;SDS011;9752;54.270;12.470;2022-11-20T13:36:50;14.37;;;11.27;;
19235;SDS011;9752;54.270;12.470;2022-11-20T13:41:55;13.70;;;11.53;;
19235;SDS011;9752;54.270;12.470;2022-11-20T13:46:59;16.83;;;12.57;;
19235;SDS011;9752;54.270;12.470;2022-11-20T13:52:15;18.07;;;13.83;;
19235;SDS011;9752;54.270;12.470;2022-11-20T14:03:07;13.00;;;10.23;;
19235;SDS011;9752;54.270;12.470;2022-11-20T14:08:17;16.97;;;11.60;;
19235;SDS011;9752;54.270;12.470;2022-11-20T14:13:28;14.90;;;10.83;;
19235;SDS011;9752;54.270;12.470;2022-11-20T14:18:30;16.57;;;10.70;;
19235;SDS011;9752;54.270;12.470;2022-11-20T14:23:32;16.00;;;11.63;;
19235;SDS011;9752;54.270;12.470;2022-11-20T14:28:35;12.77;;;10.37;;
19235;SDS011;9752;54.270;12.470;2022-11-20T14:33:36;15.17;;;10.10;;
19235;SDS011;9752;54.270;12.470;2022-11-20T14:38:39;16.07;;;11.90;;
19235;SDS011;9752;54.270;12.470;2022-11-20T14:43:46;16.90;;;12.27;;
19235;SDS011;9752;54.270;12.470;2022-11-20T14:48:49;16.80;;;12.63;;
19235;SDS011;9752;54.270;12.470;2022-11-20T14:53:53;17.33;;;12.40;;
19235;SDS011;9752;54.270;12.470;2022-11-20T14:58:56;14.00;;;11.73;;
19235;SDS011;9752;54.270;12.470;2022-11-20T15:03:59;16.43;;;11.03;;
19235;SDS011;9752;54.270;12.470;2022-11-20T15:09:03;7.80;;;6.80;;
19235;SDS011;9752;54.270;12.470;2022-11-20T15:14:08;6.77;;;6.27;;
19235;SDS011;9752;54.270;12.470;2022-11-20T15:19:12;6.60;;;6.20;;
19235;SDS011;9752;54.270;12.470;2022-11-20T15:24:19;7.63;;;7.13;;
19235;SDS011;9752;54.270;12.470;2022-11-20T15:29:22;7.33;;;6.83;;
19235;SDS011;9752;54.270;12.470;2022-11-20T15:34:26;7.43;;;6.93;;
19235;SDS011;9752;54.270;12.470;2022-11-20T15:39:28;7.43;;;6.83;;
19235;SDS011;9752;54.270;12.470;2022-11-20T15:44:31;6.60;;;6.00;;
19235;SDS011;9752;54.270;12.470;2022-11-20T15:49:33;7.67;;;6.97;;
19235;SDS011;9752;54.270;12.470;2022-11-20T15:54:36;7.63;;;7.03;;
19235;SDS011;9752;54.270;12.470;2022-11-20T15:59:39;7.73;;;6.67;;
19235;SDS011;9752;54.270;12.470;2022-11-20T16:04:41;9.50;;;7.23;;
19235;SDS011;9752;54.270;12.470;2022-11-20T16:09:43;6.63;;;6.00;;
19235;SDS011;9752;54.270;12.470;2022-11-20T16:14:46;5.43;;;4.97;;
19235;SDS011;9752;54.270;12.470;2022-11-20T16:20:09;8.60;;;7.47;;
19235;SDS011;9752;54.270;12.470;2022-11-20T16:25:12;7.80;;;6.50;;
19235;SDS011;9752;54.270;12.470;2022-11-20T16:30:15;6.77;;;6.10;;
19235;SDS011;9752;54.270;12.470;2022-11-20T16:35:17;10.37;;;8.03;;
19235;SDS011;9752;54.270;12.470;2022-11-20T16:40:18;8.87;;;8.10;;
19235;SDS011;9752;54.270;12.470;2022-11-20T16:45:22;10.53;;;9.23;;
19235;SDS011;9752;54.270;12.470;2022-11-20T16:50:23;11.30;;;10.13;;
19235;SDS011;9752;54.270;12.470;2022-11-20T16:55:25;12.30;;;11.00;;
19235;SDS011;9752;54.270;12.470;2022-11-20T17:00:28;23.53;;;15.30;;
19235;SDS011;9752;54.270;12.470;2022-11-20T17:05:30;15.77;;;11.43;;
19235;SDS011;9752;54.270;12.470;2022-11-20T17:10:32;15.63;;;11.97;;
19235;SDS011;9752;54.270;12.470;2022-11-20T17:15:35;16.53;;;12.47;;
19235;SDS011;9752;54.270;12.470;2022-11-20T17:20:37;14.77;;;12.10;;
19235;SDS011;9752;54.270;12.470;2022-11-20T17:25:39;17.63;;;12.27;;
19235;SDS011;9752;54.270;12.470;2022-11-20T17:30:42;24.50;;;16.93;;
19235;SDS011;9752;54.270;12.470;2022-11-20T17:35:44;23.83;;;17.50;;
19235;SDS011;9752;54.270;12.470;2022-11-20T17:40:45;24.20;;;16.37;;
19235;SDS011;9752;54.270;12.470;2022-11-20T17:45:49;25.00;;;16.60;;
19235;SDS011;9752;54.270;12.470;2022-11-20T17:50:50;23.37;;;15.73;;
19235;SDS011;9752;54.270;12.470;2022-11-20T17:55:55;21.50;;;16.13;;
19235;SDS011;9752;54.270;12.470;2022-11-20T18:01:22;22.40;;;16.13;;
19235;SDS011;9752;54.270;12.470;2022-11-20T18:06:24;27.33;;;19.37;;
19235;SDS011;9752;54.270;12.470;2022-11-20T18:11:27;29.20;;;21.37;;
19235;SDS011;9752;54.270;12.470;2022-11-20T18:16:35;24.73;;;18.07;;
19235;SDS011;9752;54.270;12.470;2022-11-20T18:21:41;25.60;;;17.67;;
19235;SDS011;9752;54.270;12.470;2022-11-20T18:26:43;25.53;;;16.53;;
19235;SDS011;9752;54.270;12.470;2022-11-20T18:31:46;27.80;;;17.40;;
19235;SDS011;9752;54.270;12.470;2022-11-20T18:36:48;26.80;;;17.57;;
19235;SDS011;9752;54.270;12.470;2022-11-20T18:41:50;27.87;;;17.07;;
19235;SDS011;9752;54.270;12.470;2022-11-20T18:47:11;26.37;;;17.07;;
19235;SDS011;9752;54.270;12.470;2022-11-20T18:52:15;20.17;;;15.20;;
19235;SDS011;9752;54.270;12.470;2022-11-20T18:57:17;22.37;;;14.50;;
19235;SDS011;9752;54.270;12.470;2022-11-20T19:02:21;21.57;;;14.47;;
19235;SDS011;9752;54.270;12.470;2022-11-20T19:07:22;23.07;;;16.20;;
19235;SDS011;9752;54.270;12.470;2022-11-20T19:12:24;25.87;;;16.13;;
19235;SDS011;9752;54.270;12.470;2022-11-20T19:17:27;27.00;;;18.87;;
19235;SDS011;9752;54.270;12.470;2022-11-20T19:22:29;29.37;;;18.60;;
19235;SDS011;9752;54.270;12.470;2022-11-20T19:27:31;26.50;;;16.53;;
19235;SDS011;9752;54.270;12.470;2022-11-20T19:32:34;33.70;;;19.43;;
19235;SDS011;9752;54.270;12.470;2022-11-20T19:37:35;28.07;;;16.67;;
19235;SDS011;9752;54.270;12.470;2022-11-20T19:42:37;32.67;;;18.93;;
19235;SDS011;9752;54.270;12.470;2022-11-20T19:47:41;38.30;;;20.23;;
19235;SDS011;9752;54.270;12.470;2022-11-20T19:52:42;26.90;;;16.87;;
19235;SDS011;9752;54.270;12.470;2022-11-20T19:57:44;36.20;;;20.33;;
19235;SDS011;9752;54.270;12.470;2022-11-20T20:02:47;31.70;;;19.17;;
19235;SDS011;9752;54.270;12.470;2022-11-20T20:07:49;29.13;;;18.40;;
19235;SDS011;9752;54.270;12.470;2022-11-20T20:12:50;32.03;;;18.57;;
19235;SDS011;9752;54.270;12.470;2022-11-20T20:17:54;34.70;;;19.97;;
19235;SDS011;9752;54.270;12.470;2022-11-20T20:22:55;34.27;;;21.00;;
19235;SDS011;9752;54.270;12.470;2022-11-20T20:27:57;36.57;;;19.50;;
19235;SDS011;9752;54.270;12.470;2022-11-20T20:33:00;36.73;;;20.73;;
19235;SDS011;9752;54.270;12.470;2022-11-20T20:38:02;40.67;;;22.37;;
19235;SDS011;9752;54.270;12.470;2022-11-20T20:43:03;42.83;;;19.53;;
19235;SDS011;9752;54.270;12.470;2022-11-20T20:48:06;20.03;;;12.70;;
19235;SDS011;9752;54.270;12.470;2022-11-20T20:53:08;8.20;;;5.53;;
19235;SDS011;9752;54.270;12.470;2022-11-20T20:58:10;2.87;;;2.60;;
19235;SDS011;9752;54.270;12.470;2022-11-20T21:03:13;2.63;;;2.40;;
19235;SDS011;9752;54.270;12.470;2022-11-20T21:08:15;2.60;;;2.40;;
19235;SDS011;9752;54.270;12.470;2022-11-20T21:13:24;3.50;;;3.17;;
19235;SDS011;9752;54.270;12.470;2022-11-20T21:18:27;3.77;;;3.07;;
19235;SDS011;9752;54.270;12.470;2022-11-20T21:23:29;4.07;;;3.40;;
19235;SDS011;9752;54.270;12.470;2022-11-20T21:28:32;3.17;;;2.60;;
19235;SDS011;9752;54.270;12.470;2022-11-20T21:33:39;2.83;;;2.63;;
19235;SDS011;9752;54.270;12.470;2022-11-20T21:38:42;3.03;;;2.83;;
19235;SDS011;9752;54.270;12.470;2022-11-20T21:43:44;3.87;;;3.50;;
19235;SDS011;9752;54.270;12.470;2022-11-20T21:48:47;4.90;;;2.83;;
19235;SDS011;9752;54.270;12.470;2022-11-20T21:53:49;2.77;;;2.57;;
19235;SDS011;9752;54.270;12.470;2022-11-20T21:58:52;3.73;;;2.73;;
19235;SDS011;9752;54.270;12.470;2022-11-20T22:03:56;2.90;;;2.70;;
19235;SDS011;9752;54.270;12.470;2022-11-20T22:08:59;3.43;;;3.13;;
19235;SDS011;9752;54.270;12.470;2022-11-20T22:14:01;4.90;;;3.03;;
19235;SDS011;9752;54.270;12.470;2022-11-20T22:19:22;3.93;;;3.63;;
19235;SDS011;9752;54.270;12.470;2022-11-20T22:24:24;4.10;;;3.70;;
19235;SDS011;9752;54.270;12.470;2022-11-20T22:29:25;3.90;;;3.50;;
19235;SDS011;9752;54.270;12.470;2022-11-20T22:34:29;4.17;;;3.53;;
19235;SDS011;9752;54.270;12.470;2022-11-20T22:39:30;3.57;;;3.27;;
19235;SDS011;9752;54.270;12.470;2022-11-20T22:44:32;4.97;;;3.63;;
19235;SDS011;9752;54.270;12.470;2022-11-20T22:49:35;4.37;;;3.97;;
19235;SDS011;9752;54.270;12.470;2022-11-20T22:54:37;4.87;;;3.90;;
19235;SDS011;9752;54.270;12.470;2022-11-20T22:59:38;4.27;;;3.87;;
19235;SDS011;9752;54.270;12.470;2022-11-20T23:04:42;4.20;;;3.80;;
19235;SDS011;9752;54.270;12.470;2022-11-20T23:09:43;4.17;;;3.80;;
19235;SDS011;9752;54.270;12.470;2022-11-20T23:14:45;4.17;;;3.73;;
19235;SDS011;9752;54.270;12.470;2022-11-20T23:19:48;4.20;;;3.80;;
19235;SDS011;9752;54.270;12.470;2022-11-20T23:24:49;4.90;;;4.40;;
19235;SDS011;9752;54.270;12.470;2022-11-20T23:29:51;4.90;;;4.50;;
19235;SDS011;9752;54.270;12.470;2022-11-20T23:34:54;6.17;;;4.87;;
19235;SDS011;9752;54.270;12.470;2022-11-20T23:39:56;5.90;;;4.57;;
19235;SDS011;9752;54.270;12.470;2022-11-20T23:44:58;5.70;;;4.53;;
19235;SDS011;9752;54.270;12.470;2022-11-20T23:50:01;4.70;;;4.30;;
19235;SDS011;9752;54.270;12.470;2022-11-20T23:55:02;3.70;;;3.40;;
